sensor_id;sensor_type;location;lat;lon;timestamp;noise_LAeq;noise_LA_min;noise_LA_max;noise_LA01;noise_LA95
46749;Laerm;33775;47.992;11.864;2023-04-25T00:00:13;36.46;29.92;39.34;;
46749;Laerm;33775;47.992;11.864;2023-04-25T00:02:38;36.45;29.92;39.21;;
46749;Laerm;33775;47.992;11.864;2023-04-25T00:05:04;36.44;28.67;39.92;;
46749;Laerm;33775;47.992;11.864;2023-04-25T00:07:29;36.39;29.92;39.34;;
46749;Laerm;33775;47.992;11.864;2023-04-25T00:09:56;36.40;29.92;39.21;;
46749;Laerm;33775;47.992;11.864;2023-04-25T00:12:21;36.44;29.92;39.46;;
46749;Laerm;33775;47.992;11.864;2023-04-25T00:14:47;36.46;28.67;40.03;;
46749;Laerm;33775;47.992;11.864;2023-04-25T00:17:14;36.46;28.67;39.70;;
46749;Laerm;33775;47.992;11.864;2023-04-25T00:19:39;36.44;30.89;39.46;;
46749;Laerm;33775;47.992;11.864;2023-04-25T00:22:05;36.42;28.67;39.70;;
46749;Laerm;33775;47.992;11.864;2023-04-25T00:24:30;36.45;30.89;39.70;;
46749;Laerm;33775;47.992;11.864;2023-04-25T00:26:55;36.45;30.89;39.58;;
46749;Laerm;33775;47.992;11.864;2023-04-25T00:29:21;36.44;29.92;39.21;;
46749;Laerm;33775;47.992;11.864;2023-04-25T00:31:46;36.51;29.92;39.46;;
46749;Laerm;33775;47.992;11.864;2023-04-25T00:34:11;36.49;29.92;39.58;;
46749;Laerm;33775;47.992;11.864;2023-04-25T00:36:36;36.44;29.92;39.34;;
46749;Laerm;33775;47.992;11.864;2023-04-25T00:39:01;36.44;26.91;39.46;;
46749;Laerm;33775;47.992;11.864;2023-04-25T00:41:27;36.41;30.89;39.58;;
46749;Laerm;33775;47.992;11.864;2023-04-25T00:43:53;36.36;29.92;39.46;;
46749;Laerm;33775;47.992;11.864;2023-04-25T00:46:19;36.40;29.92;39.70;;
46749;Laerm;33775;47.992;11.864;2023-04-25T00:48:44;36.38;29.92;39.46;;
46749;Laerm;33775;47.992;11.864;2023-04-25T00:51:10;36.38;29.92;39.08;;
46749;Laerm;33775;47.992;11.864;2023-04-25T00:53:38;36.42;29.92;39.46;;
46749;Laerm;33775;47.992;11.864;2023-04-25T00:56:03;36.48;30.89;39.81;;
46749;Laerm;33775;47.992;11.864;2023-04-25T00:58:29;36.58;30.89;39.46;;
46749;Laerm;33775;47.992;11.864;2023-04-25T01:00:54;36.60;30.89;39.21;;
46749;Laerm;33775;47.992;11.864;2023-04-25T01:03:20;36.53;30.89;39.21;;
46749;Laerm;33775;47.992;11.864;2023-04-25T01:05:46;36.50;31.68;39.34;;
46749;Laerm;33775;47.992;11.864;2023-04-25T01:08:12;36.47;30.89;39.58;;
46749;Laerm;33775;47.992;11.864;2023-04-25T01:10:37;36.44;28.67;39.78;;
46749;Laerm;33775;47.992;11.864;2023-04-25T01:13:03;36.42;30.89;39.58;;
46749;Laerm;33775;47.992;11.864;2023-04-25T01:15:28;36.42;30.89;39.46;;
46749;Laerm;33775;47.992;11.864;2023-04-25T01:17:53;36.46;29.92;39.46;;
46749;Laerm;33775;47.992;11.864;2023-04-25T01:20:21;36.41;30.89;39.70;;
46749;Laerm;33775;47.992;11.864;2023-04-25T01:22:47;36.39;29.92;39.46;;
46749;Laerm;33775;47.992;11.864;2023-04-25T01:25:12;36.42;29.92;39.21;;
46749;Laerm;33775;47.992;11.864;2023-04-25T01:27:37;36.50;28.67;39.34;;
46749;Laerm;33775;47.992;11.864;2023-04-25T01:30:03;36.60;29.92;39.81;;
46749;Laerm;33775;47.992;11.864;2023-04-25T01:32:29;36.60;30.89;39.58;;
46749;Laerm;33775;47.992;11.864;2023-04-25T01:34:56;36.74;31.68;39.70;;
46749;Laerm;33775;47.992;11.864;2023-04-25T01:37:22;36.83;30.89;39.81;;
46749;Laerm;33775;47.992;11.864;2023-04-25T01:39:47;36.86;31.68;39.70;;
46749;Laerm;33775;47.992;11.864;2023-04-25T01:42:13;36.90;30.89;39.70;;
46749;Laerm;33775;47.992;11.864;2023-04-25T01:44:39;36.88;31.68;40.03;;
46749;Laerm;33775;47.992;11.864;2023-04-25T01:47:04;36.84;30.89;40.13;;
46749;Laerm;33775;47.992;11.864;2023-04-25T01:49:29;36.83;30.89;39.92;;
46749;Laerm;33775;47.992;11.864;2023-04-25T01:51:54;36.79;29.92;39.58;;
46749;Laerm;33775;47.992;11.864;2023-04-25T01:54:19;36.73;30.89;39.70;;
46749;Laerm;33775;47.992;11.864;2023-04-25T01:56:49;36.73;28.67;39.58;;
46749;Laerm;33775;47.992;11.864;2023-04-25T01:59:15;36.72;30.89;39.58;;
46749;Laerm;33775;47.992;11.864;2023-04-25T02:01:40;36.75;29.92;39.70;;
46749;Laerm;33775;47.992;11.864;2023-04-25T02:04:05;36.79;31.33;39.92;;
46749;Laerm;33775;47.992;11.864;2023-04-25T02:06:30;36.88;31.68;40.43;;
46749;Laerm;33775;47.992;11.864;2023-04-25T02:08:55;36.85;30.89;40.13;;
46749;Laerm;33775;47.992;11.864;2023-04-25T02:11:21;36.85;30.89;40.23;;
46749;Laerm;33775;47.992;11.864;2023-04-25T02:13:46;36.86;29.92;40.13;;
46749;Laerm;33775;47.992;11.864;2023-04-25T02:16:11;36.75;29.92;39.58;;
46749;Laerm;33775;47.992;11.864;2023-04-25T02:18:36;36.74;30.89;39.70;;
46749;Laerm;33775;47.992;11.864;2023-04-25T02:21:02;36.76;30.89;39.70;;
46749;Laerm;33775;47.992;11.864;2023-04-25T02:23:28;36.74;31.68;39.70;;
46749;Laerm;33775;47.992;11.864;2023-04-25T02:25:53;36.71;28.67;39.46;;
46749;Laerm;33775;47.992;11.864;2023-04-25T02:28:20;36.68;28.67;39.92;;
46749;Laerm;33775;47.992;11.864;2023-04-25T02:30:45;36.65;30.89;39.70;;
46749;Laerm;33775;47.992;11.864;2023-04-25T02:33:10;36.55;29.92;39.34;;
46749;Laerm;33775;47.992;11.864;2023-04-25T02:35:35;36.57;30.89;40.13;;
46749;Laerm;33775;47.992;11.864;2023-04-25T02:38:00;36.70;29.92;40.13;;
46749;Laerm;33775;47.992;11.864;2023-04-25T02:40:26;36.74;28.67;39.70;;
46749;Laerm;33775;47.992;11.864;2023-04-25T02:42:51;36.82;30.89;39.81;;
46749;Laerm;33775;47.992;11.864;2023-04-25T02:45:16;36.88;31.68;39.92;;
46749;Laerm;33775;47.992;11.864;2023-04-25T02:47:41;36.86;31.68;39.92;;
46749;Laerm;33775;47.992;11.864;2023-04-25T02:50:07;36.85;29.92;39.58;;
46749;Laerm;33775;47.992;11.864;2023-04-25T02:52:32;36.84;31.68;39.70;;
46749;Laerm;33775;47.992;11.864;2023-04-25T02:54:57;36.83;30.89;39.92;;
46749;Laerm;33775;47.992;11.864;2023-04-25T02:57:22;36.80;31.33;39.81;;
46749;Laerm;33775;47.992;11.864;2023-04-25T02:59:47;36.74;26.91;39.58;;
46749;Laerm;33775;47.992;11.864;2023-04-25T03:02:13;36.73;30.89;39.70;;
46749;Laerm;33775;47.992;11.864;2023-04-25T03:04:38;36.71;30.89;39.58;;
46749;Laerm;33775;47.992;11.864;2023-04-25T03:07:03;36.66;28.67;39.34;;
46749;Laerm;33775;47.992;11.864;2023-04-25T03:09:28;36.66;28.67;39.92;;
46749;Laerm;33775;47.992;11.864;2023-04-25T03:11:54;36.66;30.89;39.92;;
46749;Laerm;33775;47.992;11.864;2023-04-25T03:14:19;36.61;29.92;39.58;;
46749;Laerm;33775;47.992;11.864;2023-04-25T03:16:44;36.65;31.68;39.70;;
46749;Laerm;33775;47.992;11.864;2023-04-25T03:19:10;36.62;30.89;39.70;;
46749;Laerm;33775;47.992;11.864;2023-04-25T03:21:35;36.66;28.67;39.92;;
46749;Laerm;33775;47.992;11.864;2023-04-25T03:24:01;36.64;29.92;39.34;;
46749;Laerm;33775;47.992;11.864;2023-04-25T03:26:27;36.65;28.67;39.58;;
46749;Laerm;33775;47.992;11.864;2023-04-25T03:28:52;36.61;30.89;40.13;;
46749;Laerm;33775;47.992;11.864;2023-04-25T03:31:17;36.63;29.92;40.03;;
46749;Laerm;33775;47.992;11.864;2023-04-25T03:33:42;36.66;30.89;39.46;;
46749;Laerm;33775;47.992;11.864;2023-04-25T03:36:07;36.68;29.92;39.58;;
46749;Laerm;33775;47.992;11.864;2023-04-25T03:38:33;36.64;30.89;40.23;;
46749;Laerm;33775;47.992;11.864;2023-04-25T03:40:58;36.65;28.67;39.58;;
46749;Laerm;33775;47.992;11.864;2023-04-25T03:43:23;36.66;30.89;39.70;;
46749;Laerm;33775;47.992;11.864;2023-04-25T03:45:48;36.65;29.92;39.58;;
46749;Laerm;33775;47.992;11.864;2023-04-25T03:48:14;36.65;30.89;39.58;;
46749;Laerm;33775;47.992;11.864;2023-04-25T03:50:39;36.66;30.89;39.81;;
46749;Laerm;33775;47.992;11.864;2023-04-25T03:53:04;36.63;29.92;39.92;;
46749;Laerm;33775;47.992;11.864;2023-04-25T03:55:30;36.65;30.89;39.70;;
46749;Laerm;33775;47.992;11.864;2023-04-25T03:57:55;36.68;30.89;39.70;;
46749;Laerm;33775;47.992;11.864;2023-04-25T04:00:22;36.70;29.92;40.13;;
46749;Laerm;33775;47.992;11.864;2023-04-25T04:02:48;36.83;30.89;40.13;;
46749;Laerm;33775;47.992;11.864;2023-04-25T04:05:13;36.89;29.92;40.13;;
46749;Laerm;33775;47.992;11.864;2023-04-25T04:07:38;36.89;30.89;39.68;;
46749;Laerm;33775;47.992;11.864;2023-04-25T04:10:08;36.86;31.68;39.92;;
46749;Laerm;33775;47.992;11.864;2023-04-25T04:12:33;36.89;31.68;39.81;;
46749;Laerm;33775;47.992;11.864;2023-04-25T04:14:59;36.91;30.89;39.81;;
46749;Laerm;33775;47.992;11.864;2023-04-25T04:17:24;36.86;30.89;39.92;;
46749;Laerm;33775;47.992;11.864;2023-04-25T04:19:50;36.78;31.33;39.92;;
46749;Laerm;33775;47.992;11.864;2023-04-25T04:22:15;36.77;31.68;39.92;;
46749;Laerm;33775;47.992;11.864;2023-04-25T04:24:40;36.73;31.68;39.58;;
46749;Laerm;33775;47.992;11.864;2023-04-25T04:27:08;36.71;31.68;39.70;;
46749;Laerm;33775;47.992;11.864;2023-04-25T04:29:34;36.67;30.89;40.03;;
46749;Laerm;33775;47.992;11.864;2023-04-25T04:31:59;36.70;30.89;39.70;;
46749;Laerm;33775;47.992;11.864;2023-04-25T04:34:26;36.71;30.89;40.03;;
46749;Laerm;33775;47.992;11.864;2023-04-25T04:36:52;36.66;30.89;39.81;;
46749;Laerm;33775;47.992;11.864;2023-04-25T04:39:17;36.62;31.68;39.58;;
46749;Laerm;33775;47.992;11.864;2023-04-25T04:41:42;36.66;29.92;39.46;;
46749;Laerm;33775;47.992;11.864;2023-04-25T04:44:08;36.68;29.92;39.58;;
46749;Laerm;33775;47.992;11.864;2023-04-25T04:46:34;36.65;30.89;39.58;;
46749;Laerm;33775;47.992;11.864;2023-04-25T04:49:04;36.68;32.00;39.35;;
46749;Laerm;33775;47.992;11.864;2023-04-25T04:51:29;36.68;31.68;39.46;;
46749;Laerm;33775;47.992;11.864;2023-04-25T04:53:56;36.69;29.92;39.70;;
46749;Laerm;33775;47.992;11.864;2023-04-25T04:56:23;36.70;30.89;39.58;;
46749;Laerm;33775;47.992;11.864;2023-04-25T04:58:50;36.71;30.89;39.92;;
46749;Laerm;33775;47.992;11.864;2023-04-25T05:01:15;36.72;28.67;39.46;;
46749;Laerm;33775;47.992;11.864;2023-04-25T05:03:41;36.76;29.92;39.70;;
46749;Laerm;33775;47.992;11.864;2023-04-25T05:06:06;36.75;30.89;39.57;;
46749;Laerm;33775;47.992;11.864;2023-04-25T05:08:31;36.80;30.89;39.70;;
46749;Laerm;33775;47.992;11.864;2023-04-25T05:10:56;36.83;30.89;39.99;;
46749;Laerm;33775;47.992;11.864;2023-04-25T05:13:21;36.82;32.35;39.92;;
46749;Laerm;33775;47.992;11.864;2023-04-25T05:15:47;36.79;31.68;40.23;;
46749;Laerm;33775;47.992;11.864;2023-04-25T05:18:12;36.86;31.68;40.33;;
46749;Laerm;33775;47.992;11.864;2023-04-25T05:20:37;36.87;30.89;39.92;;
46749;Laerm;33775;47.992;11.864;2023-04-25T05:23:02;36.90;31.68;40.53;;
46749;Laerm;33775;47.992;11.864;2023-04-25T05:25:27;36.88;31.33;39.92;;
46749;Laerm;33775;47.992;11.864;2023-04-25T05:27:52;36.89;31.68;39.92;;
46749;Laerm;33775;47.992;11.864;2023-04-25T05:30:18;36.87;31.68;40.03;;
46749;Laerm;33775;47.992;11.864;2023-04-25T05:32:43;36.88;32.35;40.27;;
46749;Laerm;33775;47.992;11.864;2023-04-25T05:35:08;36.86;30.89;39.58;;
46749;Laerm;33775;47.992;11.864;2023-04-25T05:37:33;36.83;30.89;40.13;;
46749;Laerm;33775;47.992;11.864;2023-04-25T05:39:59;36.84;30.89;39.70;;
46749;Laerm;33775;47.992;11.864;2023-04-25T05:42:24;36.81;30.89;39.70;;
46749;Laerm;33775;47.992;11.864;2023-04-25T05:44:49;36.82;29.92;39.92;;
46749;Laerm;33775;47.992;11.864;2023-04-25T05:47:14;36.79;30.89;39.92;;
46749;Laerm;33775;47.992;11.864;2023-04-25T05:49:40;36.78;31.68;39.92;;
46749;Laerm;33775;47.992;11.864;2023-04-25T05:52:05;36.74;30.89;39.81;;
46749;Laerm;33775;47.992;11.864;2023-04-25T05:54:30;36.77;30.89;39.58;;
46749;Laerm;33775;47.992;11.864;2023-04-25T05:56:56;36.73;30.89;39.81;;
46749;Laerm;33775;47.992;11.864;2023-04-25T05:59:21;36.75;29.92;39.58;;
46749;Laerm;33775;47.992;11.864;2023-04-25T06:01:47;36.76;28.67;39.70;;
46749;Laerm;33775;47.992;11.864;2023-04-25T06:04:12;36.75;30.89;39.81;;
46749;Laerm;33775;47.992;11.864;2023-04-25T06:06:37;36.74;30.89;40.13;;
46749;Laerm;33775;47.992;11.864;2023-04-25T06:09:02;36.74;30.89;39.70;;
46749;Laerm;33775;47.992;11.864;2023-04-25T06:11:27;36.72;32.00;40.33;;
46749;Laerm;33775;47.992;11.864;2023-04-25T06:13:53;36.74;28.67;39.81;;
46749;Laerm;33775;47.992;11.864;2023-04-25T06:16:19;36.72;31.68;39.81;;
46749;Laerm;33775;47.992;11.864;2023-04-25T06:18:44;36.70;31.68;39.46;;
46749;Laerm;33775;47.992;11.864;2023-04-25T06:21:09;36.68;29.92;39.68;;
46749;Laerm;33775;47.992;11.864;2023-04-25T06:23:34;36.70;30.89;39.81;;
46749;Laerm;33775;47.992;11.864;2023-04-25T06:26:00;36.71;29.92;39.70;;
46749;Laerm;33775;47.992;11.864;2023-04-25T06:28:25;36.70;31.68;39.70;;
46749;Laerm;33775;47.992;11.864;2023-04-25T06:30:50;36.70;30.89;40.13;;
46749;Laerm;33775;47.992;11.864;2023-04-25T06:33:15;36.69;29.92;39.70;;
46749;Laerm;33775;47.992;11.864;2023-04-25T06:35:41;36.69;30.89;39.70;;
46749;Laerm;33775;47.992;11.864;2023-04-25T06:38:06;36.66;31.68;39.70;;
46749;Laerm;33775;47.992;11.864;2023-04-25T06:40:31;36.68;29.92;39.70;;
46749;Laerm;33775;47.992;11.864;2023-04-25T06:42:56;36.71;30.89;39.92;;
46749;Laerm;33775;47.992;11.864;2023-04-25T06:45:21;36.69;30.89;39.46;;
46749;Laerm;33775;47.992;11.864;2023-04-25T06:47:47;36.72;28.67;39.70;;
46749;Laerm;33775;47.992;11.864;2023-04-25T06:50:12;36.73;26.91;39.70;;
46749;Laerm;33775;47.992;11.864;2023-04-25T06:52:37;36.70;30.89;39.81;;
46749;Laerm;33775;47.992;11.864;2023-04-25T06:55:02;36.74;30.89;39.46;;
46749;Laerm;33775;47.992;11.864;2023-04-25T06:57:28;36.75;31.68;39.58;;
46749;Laerm;33775;47.992;11.864;2023-04-25T06:59:54;36.76;29.92;39.70;;
46749;Laerm;33775;47.992;11.864;2023-04-25T07:02:19;36.76;30.89;39.58;;
46749;Laerm;33775;47.992;11.864;2023-04-25T07:04:46;36.76;29.92;39.58;;
46749;Laerm;33775;47.992;11.864;2023-04-25T07:07:11;36.81;32.35;39.58;;
46749;Laerm;33775;47.992;11.864;2023-04-25T07:09:36;36.80;31.68;39.78;;
46749;Laerm;33775;47.992;11.864;2023-04-25T07:12:02;36.82;30.89;39.70;;
46749;Laerm;33775;47.992;11.864;2023-04-25T07:14:27;36.83;31.68;40.23;;
46749;Laerm;33775;47.992;11.864;2023-04-25T07:16:53;36.78;31.68;39.92;;
46749;Laerm;33775;47.992;11.864;2023-04-25T07:19:18;36.77;29.92;39.70;;
46749;Laerm;33775;47.992;11.864;2023-04-25T07:21:43;36.76;30.89;39.70;;
46749;Laerm;33775;47.992;11.864;2023-04-25T07:24:08;36.77;32.35;39.58;;
46749;Laerm;33775;47.992;11.864;2023-04-25T07:26:33;36.73;29.92;39.58;;
46749;Laerm;33775;47.992;11.864;2023-04-25T07:28:59;36.76;29.92;39.81;;
46749;Laerm;33775;47.992;11.864;2023-04-25T07:31:24;36.75;31.68;39.58;;
46749;Laerm;33775;47.992;11.864;2023-04-25T07:33:50;36.78;29.92;39.46;;
46749;Laerm;33775;47.992;11.864;2023-04-25T07:36:15;36.75;29.92;40.23;;
46749;Laerm;33775;47.992;11.864;2023-04-25T07:38:40;36.76;31.68;39.46;;
46749;Laerm;33775;47.992;11.864;2023-04-25T07:41:06;36.76;30.89;39.70;;
46749;Laerm;33775;47.992;11.864;2023-04-25T07:43:31;36.78;29.92;40.23;;
46749;Laerm;33775;47.992;11.864;2023-04-25T07:45:56;36.78;30.89;39.81;;
46749;Laerm;33775;47.992;11.864;2023-04-25T07:48:22;36.77;30.89;40.03;;
46749;Laerm;33775;47.992;11.864;2023-04-25T07:50:47;36.78;31.68;39.92;;
46749;Laerm;33775;47.992;11.864;2023-04-25T07:53:13;36.78;31.68;39.70;;
46749;Laerm;33775;47.992;11.864;2023-04-25T07:55:38;36.80;31.68;39.81;;
46749;Laerm;33775;47.992;11.864;2023-04-25T07:58:07;36.81;32.35;39.70;;
46749;Laerm;33775;47.992;11.864;2023-04-25T08:00:34;36.88;30.89;39.92;;
46749;Laerm;33775;47.992;11.864;2023-04-25T08:03:00;36.97;28.67;39.58;;
46749;Laerm;33775;47.992;11.864;2023-04-25T08:05:25;37.04;31.68;39.68;;
46749;Laerm;33775;47.992;11.864;2023-04-25T08:07:50;37.10;32.35;40.53;;
46749;Laerm;33775;47.992;11.864;2023-04-25T08:10:16;37.14;32.93;39.70;;
46749;Laerm;33775;47.992;11.864;2023-04-25T08:12:41;37.19;32.35;40.23;;
46749;Laerm;33775;47.992;11.864;2023-04-25T08:15:07;37.24;32.93;39.92;;
46749;Laerm;33775;47.992;11.864;2023-04-25T08:17:32;37.23;32.93;40.23;;
46749;Laerm;33775;47.992;11.864;2023-04-25T08:19:57;37.27;32.93;40.13;;
46749;Laerm;33775;47.992;11.864;2023-04-25T08:22:23;37.28;32.93;40.13;;
46749;Laerm;33775;47.992;11.864;2023-04-25T08:24:48;37.27;32.93;39.92;;
46749;Laerm;33775;47.992;11.864;2023-04-25T08:27:13;37.28;32.93;39.81;;
46749;Laerm;33775;47.992;11.864;2023-04-25T08:29:39;37.29;32.35;39.92;;
46749;Laerm;33775;47.992;11.864;2023-04-25T08:32:04;37.29;32.35;40.03;;
46749;Laerm;33775;47.992;11.864;2023-04-25T08:34:29;37.27;32.93;39.92;;
46749;Laerm;33775;47.992;11.864;2023-04-25T08:36:55;37.27;32.93;39.92;;
46749;Laerm;33775;47.992;11.864;2023-04-25T08:39:20;37.24;33.44;39.92;;
46749;Laerm;33775;47.992;11.864;2023-04-25T08:41:46;37.32;32.93;40.03;;
46749;Laerm;33775;47.992;11.864;2023-04-25T08:44:11;37.28;32.93;39.92;;
46749;Laerm;33775;47.992;11.864;2023-04-25T08:46:39;37.32;31.68;40.03;;
46749;Laerm;33775;47.992;11.864;2023-04-25T08:49:05;37.32;33.44;40.33;;
46749;Laerm;33775;47.992;11.864;2023-04-25T08:51:32;37.36;32.93;40.33;;
46749;Laerm;33775;47.992;11.864;2023-04-25T08:53:59;37.35;32.35;39.92;;
46749;Laerm;33775;47.992;11.864;2023-04-25T08:56:26;37.40;29.92;41.30;;
46749;Laerm;33775;47.992;11.864;2023-04-25T08:58:51;37.41;33.44;39.92;;
46749;Laerm;33775;47.992;11.864;2023-04-25T09:01:17;37.37;29.92;40.13;;
46749;Laerm;33775;47.992;11.864;2023-04-25T09:03:43;37.36;32.35;40.33;;
46749;Laerm;33775;47.992;11.864;2023-04-25T09:06:10;37.32;32.93;39.92;;
46749;Laerm;33775;47.992;11.864;2023-04-25T09:08:36;37.28;32.93;40.43;;
46749;Laerm;33775;47.992;11.864;2023-04-25T09:11:01;37.31;32.93;39.92;;
46749;Laerm;33775;47.992;11.864;2023-04-25T09:13:27;37.26;32.35;40.03;;
46749;Laerm;33775;47.992;11.864;2023-04-25T09:15:53;37.28;32.93;40.54;;
46749;Laerm;33775;47.992;11.864;2023-04-25T09:18:29;37.28;32.35;40.13;;
46749;Laerm;33775;47.992;11.864;2023-04-25T09:20:55;37.27;32.35;40.43;;
46749;Laerm;33775;47.992;11.864;2023-04-25T09:23:21;37.21;32.35;39.81;;
46749;Laerm;33775;47.992;11.864;2023-04-25T09:25:47;37.20;31.68;39.81;;
46749;Laerm;33775;47.992;11.864;2023-04-25T09:28:12;37.21;32.93;39.92;;
46749;Laerm;33775;47.992;11.864;2023-04-25T09:30:37;37.22;23.90;40.98;;
46749;Laerm;33775;47.992;11.864;2023-04-25T09:33:06;37.28;32.93;39.92;;
46749;Laerm;33775;47.992;11.864;2023-04-25T09:35:39;37.31;32.35;40.13;;
46749;Laerm;33775;47.992;11.864;2023-04-25T09:38:08;37.36;32.35;39.92;;
46749;Laerm;33775;47.992;11.864;2023-04-25T09:40:34;37.38;33.44;40.03;;
46749;Laerm;33775;47.992;11.864;2023-04-25T09:43:07;37.38;33.44;40.43;;
46749;Laerm;33775;47.992;11.864;2023-04-25T09:45:33;37.29;32.35;39.81;;
46749;Laerm;33775;47.992;11.864;2023-04-25T09:48:06;37.27;31.68;40.23;;
46749;Laerm;33775;47.992;11.864;2023-04-25T09:50:31;37.28;32.35;40.13;;
46749;Laerm;33775;47.992;11.864;2023-04-25T09:53:03;37.25;32.35;39.92;;
46749;Laerm;33775;47.992;11.864;2023-04-25T09:55:31;37.30;32.35;40.23;;
46749;Laerm;33775;47.992;11.864;2023-04-25T09:57:56;37.36;32.93;40.23;;
46749;Laerm;33775;47.992;11.864;2023-04-25T10:00:24;37.35;32.93;40.23;;
46749;Laerm;33775;47.992;11.864;2023-04-25T10:02:49;37.37;31.68;39.92;;
46749;Laerm;33775;47.992;11.864;2023-04-25T10:05:17;37.38;33.44;40.03;;
46749;Laerm;33775;47.992;11.864;2023-04-25T10:07:43;37.33;32.35;40.43;;
46749;Laerm;33775;47.992;11.864;2023-04-25T10:10:09;37.31;32.35;40.13;;
46749;Laerm;33775;47.992;11.864;2023-04-25T10:12:37;37.30;33.44;40.33;;
46749;Laerm;33775;47.992;11.864;2023-04-25T10:15:04;37.25;32.93;39.92;;
46749;Laerm;33775;47.992;11.864;2023-04-25T10:17:30;37.23;31.68;39.92;;
46749;Laerm;33775;47.992;11.864;2023-04-25T10:19:56;37.19;31.68;39.92;;
46749;Laerm;33775;47.992;11.864;2023-04-25T10:22:38;37.19;31.68;40.03;;
46749;Laerm;33775;47.992;11.864;2023-04-25T10:25:04;37.18;29.57;40.23;;
46749;Laerm;33775;47.992;11.864;2023-04-25T10:27:30;37.19;32.93;40.13;;
46749;Laerm;33775;47.992;11.864;2023-04-25T10:30:08;37.21;30.89;40.23;;
46749;Laerm;33775;47.992;11.864;2023-04-25T10:32:36;37.22;32.93;40.23;;
46749;Laerm;33775;47.992;11.864;2023-04-25T10:35:11;37.25;32.93;40.23;;
46749;Laerm;33775;47.992;11.864;2023-04-25T10:37:36;37.36;33.44;40.33;;
46749;Laerm;33775;47.992;11.864;2023-04-25T10:40:08;37.36;32.93;40.23;;
46749;Laerm;33775;47.992;11.864;2023-04-25T10:42:34;37.32;32.35;40.23;;
46749;Laerm;33775;47.992;11.864;2023-04-25T10:45:00;37.28;32.93;40.03;;
46749;Laerm;33775;47.992;11.864;2023-04-25T10:47:34;37.27;31.68;39.92;;
46749;Laerm;33775;47.992;11.864;2023-04-25T10:50:04;37.27;31.68;39.92;;
46749;Laerm;33775;47.992;11.864;2023-04-25T10:52:29;37.27;32.93;40.23;;
46749;Laerm;33775;47.992;11.864;2023-04-25T10:54:55;37.27;32.93;40.23;;
46749;Laerm;33775;47.992;11.864;2023-04-25T11:02:30;37.28;31.68;40.03;;
46749;Laerm;33775;47.992;11.864;2023-04-25T11:04:55;37.35;32.93;40.03;;
46749;Laerm;33775;47.992;11.864;2023-04-25T11:10:05;37.31;32.35;40.23;;
46749;Laerm;33775;47.992;11.864;2023-04-25T11:12:31;37.30;32.35;40.23;;
46749;Laerm;33775;47.992;11.864;2023-04-25T11:15:00;37.28;32.35;40.23;;
46749;Laerm;33775;47.992;11.864;2023-04-25T11:17:26;37.33;32.35;40.13;;
46749;Laerm;33775;47.992;11.864;2023-04-25T11:19:51;37.39;32.35;40.13;;
46749;Laerm;33775;47.992;11.864;2023-04-25T11:22:16;37.41;32.93;42.59;;
46749;Laerm;33775;47.992;11.864;2023-04-25T11:24:41;37.36;32.93;40.33;;
46749;Laerm;33775;47.992;11.864;2023-04-25T11:27:07;37.36;30.89;42.09;;
46749;Laerm;33775;47.992;11.864;2023-04-25T11:29:33;37.27;32.35;40.03;;
46749;Laerm;33775;47.992;11.864;2023-04-25T11:31:59;37.26;32.35;40.03;;
46749;Laerm;33775;47.992;11.864;2023-04-25T11:34:25;37.25;32.35;39.81;;
46749;Laerm;33775;47.992;11.864;2023-04-25T11:36:51;37.23;32.35;39.92;;
46749;Laerm;33775;47.992;11.864;2023-04-25T11:39:19;37.23;32.93;40.03;;
46749;Laerm;33775;47.992;11.864;2023-04-25T11:41:45;37.22;32.35;40.53;;
46749;Laerm;33775;47.992;11.864;2023-04-25T11:44:10;37.18;32.35;39.81;;
46749;Laerm;33775;47.992;11.864;2023-04-25T11:46:35;37.16;32.93;40.23;;
46749;Laerm;33775;47.992;11.864;2023-04-25T11:49:00;37.18;32.93;39.81;;
46749;Laerm;33775;47.992;11.864;2023-04-25T11:51:26;37.18;33.09;39.81;;
46749;Laerm;33775;47.992;11.864;2023-04-25T11:53:52;37.15;32.35;39.81;;
46749;Laerm;33775;47.992;11.864;2023-04-25T11:56:17;37.12;31.68;39.92;;
46749;Laerm;33775;47.992;11.864;2023-04-25T11:58:57;37.13;32.35;40.03;;
46749;Laerm;33775;47.992;11.864;2023-04-25T12:01:27;37.09;32.00;39.81;;
46749;Laerm;33775;47.992;11.864;2023-04-25T12:03:52;37.09;30.89;39.99;;
46749;Laerm;33775;47.992;11.864;2023-04-25T12:06:18;37.08;32.35;39.92;;
46749;Laerm;33775;47.992;11.864;2023-04-25T12:08:59;37.03;29.92;40.03;;
46749;Laerm;33775;47.992;11.864;2023-04-25T12:11:24;37.02;32.35;39.81;;
46749;Laerm;33775;47.992;11.864;2023-04-25T12:13:51;36.99;32.35;39.92;;
46749;Laerm;33775;47.992;11.864;2023-04-25T12:16:18;36.95;31.68;39.70;;
46749;Laerm;33775;47.992;11.864;2023-04-25T12:18:43;36.94;31.68;40.33;;
46749;Laerm;33775;47.992;11.864;2023-04-25T12:21:09;36.92;31.68;39.58;;
46749;Laerm;33775;47.992;11.864;2023-04-25T12:23:34;36.91;30.89;39.81;;
46749;Laerm;33775;47.992;11.864;2023-04-25T12:26:03;36.99;31.68;40.23;;
46749;Laerm;33775;47.992;11.864;2023-04-25T12:28:28;36.95;29.92;39.92;;
46749;Laerm;33775;47.992;11.864;2023-04-25T12:31:04;36.95;30.89;39.81;;
46749;Laerm;33775;47.992;11.864;2023-04-25T12:33:33;36.95;30.89;39.81;;
46749;Laerm;33775;47.992;11.864;2023-04-25T12:35:59;36.94;31.68;39.68;;
46749;Laerm;33775;47.992;11.864;2023-04-25T12:38:26;36.98;31.68;40.03;;
46749;Laerm;33775;47.992;11.864;2023-04-25T12:40:51;36.93;30.89;39.70;;
46749;Laerm;33775;47.992;11.864;2023-04-25T12:43:17;36.92;31.68;40.03;;
46749;Laerm;33775;47.992;11.864;2023-04-25T12:45:43;36.94;30.89;39.58;;
46749;Laerm;33775;47.992;11.864;2023-04-25T12:48:08;36.96;30.89;39.81;;
46749;Laerm;33775;47.992;11.864;2023-04-25T12:50:33;36.90;30.89;40.13;;
46749;Laerm;33775;47.992;11.864;2023-04-25T12:52:59;36.85;30.89;39.92;;
46749;Laerm;33775;47.992;11.864;2023-04-25T12:55:24;36.86;29.92;40.03;;
46749;Laerm;33775;47.992;11.864;2023-04-25T12:57:49;36.82;29.92;39.92;;
46749;Laerm;33775;47.992;11.864;2023-04-25T13:00:14;36.78;28.67;39.81;;
46749;Laerm;33775;47.992;11.864;2023-04-25T13:02:42;36.81;29.92;39.81;;
46749;Laerm;33775;47.992;11.864;2023-04-25T13:05:08;36.84;30.89;40.03;;
46749;Laerm;33775;47.992;11.864;2023-04-25T13:07:33;36.81;28.67;39.70;;
46749;Laerm;33775;47.992;11.864;2023-04-25T13:09:59;36.87;30.89;40.13;;
46749;Laerm;33775;47.992;11.864;2023-04-25T13:12:24;36.88;32.35;39.81;;
46749;Laerm;33775;47.992;11.864;2023-04-25T13:14:50;36.91;30.89;39.46;;
46749;Laerm;33775;47.992;11.864;2023-04-25T13:17:15;36.88;31.68;39.58;;
46749;Laerm;33775;47.992;11.864;2023-04-25T13:19:40;36.89;31.68;39.92;;
46749;Laerm;33775;47.992;11.864;2023-04-25T13:22:05;36.89;30.89;40.03;;
46749;Laerm;33775;47.992;11.864;2023-04-25T13:24:31;36.85;29.92;39.70;;
46749;Laerm;33775;47.992;11.864;2023-04-25T13:26:56;36.83;31.68;39.58;;
46749;Laerm;33775;47.992;11.864;2023-04-25T13:29:21;36.81;31.68;39.70;;
46749;Laerm;33775;47.992;11.864;2023-04-25T13:31:46;36.76;31.68;39.34;;